Time,TemperatureF,DewpointF,PressureIn,WindDirection,WindDirectionDegrees,WindSpeedMPH,WindSpeedGustMPH,Humidity,HourlyPrecipIn,Conditions,Clouds,dailyrainin,SoftwareType,DateUTC
2013-12-20 00:00:00,15.7,12.0,29.93,East,92,0.0,10.0,85,0.00,,---,0.00,VWS V14.01,2013-12-20 07:00:00,
2013-12-20 00:03:00,16.1,12.4,29.92,ENE,57,0.0,5.0,85,0.00,,---,0.00,VWS V14.01,2013-12-20 07:03:00,
2013-12-20 00:08:00,16.1,12.4,29.92,NE,56,3.0,3.0,85,0.00,,---,0.00,VWS V14.01,2013-12-20 07:08:00,
2013-12-20 00:13:00,16.2,12.5,29.92,NE,56,0.0,3.0,85,0.00,,---,0.00,VWS V14.01,2013-12-20 07:13:00,
2013-12-20 00:19:00,16.2,12.5,29.92,ENE,57,0.0,3.0,85,0.00,,---,0.00,VWS V14.01,2013-12-20 07:19:00,
2013-12-20 00:24:00,16.3,12.6,29.92,ENE,57,0.0,4.0,85,0.00,,---,0.00,VWS V14.01,2013-12-20 07:24:00,
2013-12-20 00:29:00,16.3,12.6,29.93,NE,56,0.0,4.0,85,0.00,,---,0.00,VWS V14.01,2013-12-20 07:29:00,
2013-12-20 00:30:00,15.7,12.0,29.93,East,83,0.0,4.0,85,0.00,,---,0.00,VWS V14.01,2013-12-20 07:30:00,
2013-12-20 00:34:00,16.1,12.4,29.93,NE,56,2.0,4.0,85,0.00,,---,0.00,VWS V14.01,2013-12-20 07:34:00,
2013-12-20 00:39:00,16.0,12.3,29.93,ESE,112,1.0,7.0,85,0.00,,---,0.00,VWS V14.01,2013-12-20 07:39:00,
2013-12-20 00:44:00,15.9,12.2,29.93,East,97,4.0,7.0,85,0.00,,---,0.00,VWS V14.01,2013-12-20 07:44:00,
2013-12-20 00:49:00,15.8,12.1,29.93,SE,126,6.0,8.0,85,0.00,,---,0.00,VWS V14.01,2013-12-20 07:49:00,
2013-12-20 00:54:00,15.5,11.8,29.93,East,92,7.0,10.0,85,0.00,,---,0.00,VWS V14.01,2013-12-20 07:54:00,
2013-12-20 00:59:00,15.5,11.8,29.93,East,92,2.0,10.0,85,0.00,,---,0.00,VWS V14.01,2013-12-20 07:59:00,
2013-12-20 01:00:00,16.1,12.4,29.93,East,97,0.0,3.0,85,0.00,,---,0.00,VWS V14.01,2013-12-20 08:00:00,
2013-12-20 01:04:00,15.7,12.0,29.93,East,92,0.0,10.0,85,0.00,,---,0.00,VWS V14.01,2013-12-20 08:04:00,
2013-12-20 01:09:00,15.7,12.0,29.93,ENE,78,4.0,4.0,85,0.00,,---,0.00,VWS V14.01,2013-12-20 08:09:00,
2013-12-20 01:14:00,15.7,12.0,29.93,East,83,0.0,4.0,85,0.00,,---,0.00,VWS V14.01,2013-12-20 08:14:00,
2013-12-20 01:19:00,15.6,11.9,29.93,East,83,0.0,4.0,85,0.00,,---,0.00,VWS V14.01,2013-12-20 08:19:00,
2013-12-20 01:25:00,15.7,12.0,29.93,East,83,0.0,4.0,85,0.00,,---,0.00,VWS V14.01,2013-12-20 08:25:00,
2013-12-20 01:30:00,15.6,11.9,29.94,East,83,1.0,4.0,85,0.00,,---,0.00,VWS V14.01,2013-12-20 08:30:00,
2013-12-20 01:35:00,15.7,12.0,29.93,East,83,0.0,0.0,85,0.00,,---,0.00,VWS V14.01,2013-12-20 08:35:00,
2013-12-20 01:40:00,15.8,12.1,29.93,East,83,0.0,0.0,85,0.00,,---,0.00,VWS V14.01,2013-12-20 08:40:00,
2013-12-20 01:45:00,15.8,12.1,29.94,East,83,0.0,3.0,85,0.00,,---,0.00,VWS V14.01,2013-12-20 08:45:00,
2013-12-20 01:50:00,16.0,12.3,29.94,East,83,0.0,3.0,85,0.00,,---,0.00,VWS V14.01,2013-12-20 08:50:00,
2013-12-20 01:55:00,16.0,12.3,29.93,East,97,0.0,3.0,85,0.00,,---,0.00,VWS V14.01,2013-12-20 08:55:00,
2013-12-20 02:00:00,16.0,12.3,29.93,East,96,0.0,3.0,85,0.00,,---,0.00,VWS V14.01,2013-12-20 09:00:00,
2013-12-20 02:05:00,16.1,12.7,29.93,East,96,0.0,0.0,86,0.00,,---,0.00,VWS V14.01,2013-12-20 09:05:00,
2013-12-20 02:10:00,16.1,12.7,29.93,East,97,0.0,0.0,86,0.00,,---,0.00,VWS V14.01,2013-12-20 09:10:00,
2013-12-20 02:16:00,16.1,12.7,29.93,East,97,0.0,0.0,86,0.00,,---,0.00,VWS V14.01,2013-12-20 09:16:00,
2013-12-20 02:21:00,16.2,12.8,29.93,ESE,123,0.0,0.0,86,0.00,,---,0.00,VWS V14.01,2013-12-20 09:21:00,
2013-12-20 02:26:00,16.4,12.9,29.93,ESE,123,0.0,0.0,86,0.00,,---,0.00,VWS V14.01,2013-12-20 09:26:00,
2013-12-20 02:30:00,16.9,13.4,29.92,ESE,115,0.0,6.0,86,0.00,,---,0.00,VWS V14.01,2013-12-20 09:30:00,
2013-12-20 02:31:00,16.3,12.9,29.93,ESE,123,0.0,0.0,86,0.00,,---,0.00,VWS V14.01,2013-12-20 09:31:00,
2013-12-20 02:36:00,16.4,12.9,29.93,ESE,123,0.0,0.0,86,0.00,,---,0.00,VWS V14.01,2013-12-20 09:36:00,
2013-12-20 02:41:00,16.4,12.9,29.93,East,96,4.0,5.0,86,0.00,,---,0.00,VWS V14.01,2013-12-20 09:41:00,
2013-12-20 02:46:00,16.3,12.6,29.93,ESE,105,1.0,6.0,85,0.00,,---,0.00,VWS V14.01,2013-12-20 09:46:00,
2013-12-20 02:51:00,16.5,12.8,29.93,ESE,115,2.0,6.0,85,0.00,,---,0.00,VWS V14.01,2013-12-20 09:51:00,
2013-12-20 02:56:00,16.5,12.8,29.93,ESE,115,2.0,6.0,85,0.00,,---,0.00,VWS V14.01,2013-12-20 09:56:00,
2013-12-20 03:00:00,17.2,13.7,29.92,ESE,115,0.0,0.0,86,0.00,,---,0.00,VWS V14.01,2013-12-20 10:00:00,
2013-12-20 03:01:00,16.4,12.7,29.93,ESE,115,0.0,6.0,85,0.00,,---,0.00,VWS V14.01,2013-12-20 10:01:00,
2013-12-20 03:06:00,16.4,12.7,29.93,ESE,115,3.0,6.0,85,0.00,,---,0.00,VWS V14.01,2013-12-20 10:06:00,
2013-12-20 03:11:00,16.6,13.1,29.93,ESE,115,0.0,6.0,86,0.00,,---,0.00,VWS V14.01,2013-12-20 10:11:00,
2013-12-20 03:17:00,16.7,13.2,29.94,ESE,115,0.0,6.0,86,0.00,,---,0.00,VWS V14.01,2013-12-20 10:17:00,
2013-12-20 03:22:00,16.8,13.4,29.94,ESE,115,0.0,6.0,86,0.00,,---,0.00,VWS V14.01,2013-12-20 10:22:00,
2013-12-20 03:27:00,16.8,13.4,29.93,ESE,115,0.0,6.0,86,0.00,,---,0.00,VWS V14.01,2013-12-20 10:27:00,
2013-12-20 03:30:00,17.7,14.2,29.91,ESE,115,0.0,0.0,86,0.00,,---,0.00,VWS V14.01,2013-12-20 10:30:00,
2013-12-20 03:32:00,16.8,13.4,29.93,ESE,115,0.0,6.0,86,0.00,,---,0.00,VWS V14.01,2013-12-20 10:32:00,
2013-12-20 03:37:00,16.9,13.4,29.93,ESE,115,0.0,0.0,86,0.00,,---,0.00,VWS V14.01,2013-12-20 10:37:00,
2013-12-20 03:42:00,16.9,13.4,29.92,ESE,115,0.0,0.0,86,0.00,,---,0.00,VWS V14.01,2013-12-20 10:42:00,
2013-12-20 03:47:00,17.0,13.5,29.92,ESE,115,0.0,0.0,86,0.00,,---,0.00,VWS V14.01,2013-12-20 10:47:00,
2013-12-20 03:52:00,17.1,13.6,29.92,ESE,115,0.0,0.0,86,0.00,,---,0.00,VWS V14.01,2013-12-20 10:52:00,
2013-12-20 03:57:00,17.2,13.7,29.92,ESE,115,0.0,0.0,86,0.00,,---,0.00,VWS V14.01,2013-12-20 10:57:00,
2013-12-20 04:00:00,17.8,14.3,29.90,ESE,115,0.0,0.0,86,0.00,,---,0.00,VWS V14.01,2013-12-20 11:00:00,
2013-12-20 04:02:00,17.2,13.7,29.92,ESE,115,0.0,0.0,86,0.00,,---,0.00,VWS V14.01,2013-12-20 11:02:00,
2013-12-20 04:07:00,17.2,13.7,29.91,ESE,115,0.0,0.0,86,0.00,,---,0.00,VWS V14.01,2013-12-20 11:07:00,
2013-12-20 04:12:00,17.3,13.8,29.92,ESE,115,0.0,0.0,86,0.00,,---,0.00,VWS V14.01,2013-12-20 11:12:00,
2013-12-20 04:17:00,17.4,13.9,29.91,ESE,115,0.0,0.0,86,0.00,,---,0.00,VWS V14.01,2013-12-20 11:17:00,
2013-12-20 04:23:00,17.5,14.0,29.91,ESE,115,0.0,0.0,86,0.00,,---,0.00,VWS V14.01,2013-12-20 11:23:00,
2013-12-20 04:28:00,17.5,14.0,29.91,ESE,115,0.0,0.0,86,0.00,,---,0.00,VWS V14.01,2013-12-20 11:28:00,
2013-12-20 04:30:00,18.1,14.6,29.89,West,264,0.0,0.0,86,0.00,,---,0.00,VWS V14.01,2013-12-20 11:30:00,
2013-12-20 04:33:00,17.7,14.2,29.90,ESE,115,0.0,0.0,86,0.00,,---,0.00,VWS V14.01,2013-12-20 11:33:00,
2013-12-20 04:38:00,17.7,14.2,29.90,ESE,115,0.0,0.0,86,0.00,,---,0.00,VWS V14.01,2013-12-20 11:38:00,
2013-12-20 04:43:00,17.7,14.2,29.90,ESE,115,0.0,0.0,86,0.00,,---,0.00,VWS V14.01,2013-12-20 11:43:00,
2013-12-20 04:48:00,17.8,14.3,29.90,ESE,115,0.0,0.0,86,0.00,,---,0.00,VWS V14.01,2013-12-20 11:48:00,
2013-12-20 04:53:00,17.7,14.2,29.90,ESE,115,0.0,0.0,86,0.00,,---,0.00,VWS V14.01,2013-12-20 11:53:00,
2013-12-20 04:58:00,17.6,14.1,29.89,ESE,115,0.0,0.0,86,0.00,,---,0.00,VWS V14.01,2013-12-20 11:58:00,
2013-12-20 05:00:00,18.4,14.9,29.89,West,264,0.0,0.0,86,0.00,,---,0.00,VWS V14.01,2013-12-20 12:00:00,
2013-12-20 05:03:00,17.8,14.3,29.89,ESE,115,0.0,0.0,86,0.00,,---,0.00,VWS V14.01,2013-12-20 12:03:00,
2013-12-20 05:08:00,17.9,14.4,29.90,ESE,115,0.0,0.0,86,0.00,,---,0.00,VWS V14.01,2013-12-20 12:08:00,
2013-12-20 05:13:00,17.9,14.4,29.89,ESE,115,0.0,0.0,86,0.00,,---,0.00,VWS V14.01,2013-12-20 12:13:00,
2013-12-20 05:18:00,18.0,14.5,29.89,ESE,115,0.0,0.0,86,0.00,,---,0.00,VWS V14.01,2013-12-20 12:18:00,
2013-12-20 05:23:00,18.1,14.6,29.89,West,264,0.0,0.0,86,0.00,,---,0.00,VWS V14.01,2013-12-20 12:23:00,
2013-12-20 05:29:00,18.0,14.5,29.89,West,264,0.0,0.0,86,0.00,,---,0.00,VWS V14.01,2013-12-20 12:29:00,
2013-12-20 05:30:00,18.7,15.2,29.90,West,264,0.0,0.0,86,0.00,,---,0.00,VWS V14.01,2013-12-20 12:30:00,
2013-12-20 05:34:00,18.1,14.6,29.89,West,264,0.0,0.0,86,0.00,,---,0.00,VWS V14.01,2013-12-20 12:34:00,
2013-12-20 05:39:00,18.1,14.6,29.90,West,264,0.0,0.0,86,0.00,,---,0.00,VWS V14.01,2013-12-20 12:39:00,
2013-12-20 05:44:00,18.2,14.7,29.90,West,264,0.0,0.0,86,0.00,,---,0.00,VWS V14.01,2013-12-20 12:44:00,
2013-12-20 05:49:00,18.2,14.7,29.89,West,264,0.0,0.0,86,0.00,,---,0.00,VWS V14.01,2013-12-20 12:49:00,
2013-12-20 05:54:00,18.3,14.8,29.90,West,264,0.0,0.0,86,0.00,,---,0.00,VWS V14.01,2013-12-20 12:54:00,
2013-12-20 05:59:00,18.4,14.9,29.89,West,264,0.0,0.0,86,0.00,,---,0.00,VWS V14.01,2013-12-20 12:59:00,
2013-12-20 06:00:00,18.8,15.3,29.91,West,264,0.0,0.0,86,0.00,,---,0.00,VWS V14.01,2013-12-20 13:00:00,
2013-12-20 06:04:00,18.4,14.9,29.89,West,264,0.0,0.0,86,0.00,,---,0.00,VWS V14.01,2013-12-20 13:04:00,
2013-12-20 06:09:00,18.4,14.9,29.89,West,264,0.0,0.0,86,0.00,,---,0.00,VWS V14.01,2013-12-20 13:09:00,
2013-12-20 06:14:00,18.5,15.0,29.89,West,264,0.0,0.0,86,0.00,,---,0.00,VWS V14.01,2013-12-20 13:14:00,
2013-12-20 06:19:00,18.6,15.1,29.90,West,264,0.0,0.0,86,0.00,,---,0.00,VWS V14.01,2013-12-20 13:19:00,
2013-12-20 06:24:00,18.6,15.1,29.90,West,264,0.0,0.0,86,0.00,,---,0.00,VWS V14.01,2013-12-20 13:24:00,
2013-12-20 06:29:00,18.7,15.2,29.89,West,264,0.0,0.0,86,0.00,,---,0.00,VWS V14.01,2013-12-20 13:29:00,
2013-12-20 06:30:00,18.9,15.1,29.91,West,264,0.0,0.0,85,0.00,,---,0.00,VWS V14.01,2013-12-20 13:30:00,
2013-12-20 06:35:00,18.7,15.2,29.90,West,264,0.0,0.0,86,0.00,,---,0.00,VWS V14.01,2013-12-20 13:35:00,
2013-12-20 06:40:00,18.7,15.2,29.90,West,264,0.0,0.0,86,0.00,,---,0.00,VWS V14.01,2013-12-20 13:40:00,
2013-12-20 06:45:00,18.7,15.2,29.90,West,264,0.0,0.0,86,0.00,,---,0.00,VWS V14.01,2013-12-20 13:45:00,
2013-12-20 06:50:00,18.7,15.2,29.91,West,264,0.0,0.0,86,0.00,,---,0.00,VWS V14.01,2013-12-20 13:50:00,
2013-12-20 06:55:00,18.8,15.3,29.91,West,264,0.0,0.0,86,0.00,,---,0.00,VWS V14.01,2013-12-20 13:55:00,
2013-12-20 07:00:00,18.8,15.3,29.91,West,264,0.0,0.0,86,0.00,,---,0.00,VWS V14.01,2013-12-20 14:00:00,
2013-12-20 07:05:00,18.8,15.3,29.91,West,264,0.0,0.0,86,0.00,,---,0.00,VWS V14.01,2013-12-20 14:05:00,
2013-12-20 07:10:00,18.9,15.4,29.91,West,264,0.0,0.0,86,0.00,,---,0.00,VWS V14.01,2013-12-20 14:10:00,
2013-12-20 07:15:00,19.0,15.5,29.91,West,264,0.0,0.0,86,0.00,,---,0.00,VWS V14.01,2013-12-20 14:15:00,
2013-12-20 07:20:00,19.0,15.5,29.91,West,264,0.0,0.0,86,0.00,,---,0.00,VWS V14.01,2013-12-20 14:20:00,
2013-12-20 07:25:00,19.0,15.5,29.91,West,264,0.0,0.0,86,0.00,,---,0.00,VWS V14.01,2013-12-20 14:25:00,
2013-12-20 07:30:00,19.0,15.2,29.91,West,264,0.0,0.0,85,0.00,,---,0.00,VWS V14.01,2013-12-20 14:30:00,
2013-12-20 07:35:00,19.0,15.2,29.91,West,264,0.0,0.0,85,0.00,,---,0.00,VWS V14.01,2013-12-20 14:35:00,
2013-12-20 07:41:00,19.0,15.2,29.91,West,264,0.0,0.0,85,0.00,,---,0.00,VWS V14.01,2013-12-20 14:41:00,
2013-12-20 07:46:00,19.1,15.3,29.91,West,264,0.0,0.0,85,0.00,,---,0.00,VWS V14.01,2013-12-20 14:46:00,
2013-12-20 07:51:00,19.0,15.2,29.91,West,264,0.0,0.0,85,0.00,,---,0.00,VWS V14.01,2013-12-20 14:51:00,
2013-12-20 07:56:00,19.0,15.2,29.90,West,264,0.0,0.0,85,0.00,,---,0.00,VWS V14.01,2013-12-20 14:56:00,
2013-12-20 08:00:00,19.6,15.8,29.92,West,264,0.0,0.0,85,0.00,,---,0.00,VWS V14.01,2013-12-20 15:00:00,
2013-12-20 08:01:00,18.9,15.1,29.90,West,264,0.0,0.0,85,0.00,,---,0.00,VWS V14.01,2013-12-20 15:01:00,
2013-12-20 08:06:00,18.9,15.1,29.90,West,264,0.0,0.0,85,0.00,,---,0.00,VWS V14.01,2013-12-20 15:06:00,
2013-12-20 08:11:00,18.9,15.1,29.91,West,264,0.0,0.0,85,0.00,,---,0.00,VWS V14.01,2013-12-20 15:11:00,
2013-12-20 08:16:00,19.0,15.2,29.91,West,264,0.0,0.0,85,0.00,,---,0.00,VWS V14.01,2013-12-20 15:16:00,
2013-12-20 08:21:00,19.1,15.3,29.91,West,264,0.0,0.0,85,0.00,,---,0.00,VWS V14.01,2013-12-20 15:21:00,
2013-12-20 08:26:00,19.1,15.3,29.91,West,264,0.0,0.0,85,0.00,,---,0.00,VWS V14.01,2013-12-20 15:26:00,
2013-12-20 08:30:00,19.7,15.9,29.91,West,264,0.0,0.0,85,0.00,,---,0.00,VWS V14.01,2013-12-20 15:30:00,
2013-12-20 08:31:00,18.9,15.1,29.92,West,264,0.0,0.0,85,0.00,,---,0.00,VWS V14.01,2013-12-20 15:31:00,
2013-12-20 08:36:00,18.9,15.1,29.92,West,264,0.0,0.0,85,0.00,,---,0.00,VWS V14.01,2013-12-20 15:36:00,
2013-12-20 08:41:00,19.0,15.2,29.92,West,264,0.0,0.0,85,0.00,,---,0.00,VWS V14.01,2013-12-20 15:41:00,
2013-12-20 08:46:00,19.1,15.6,29.92,West,264,0.0,0.0,86,0.00,,---,0.00,VWS V14.01,2013-12-20 15:46:00,
2013-12-20 08:52:00,19.2,15.4,29.92,West,264,0.0,0.0,85,0.00,,---,0.00,VWS V14.01,2013-12-20 15:52:00,
2013-12-20 08:57:00,19.5,15.7,29.92,West,264,0.0,0.0,85,0.00,,---,0.00,VWS V14.01,2013-12-20 15:57:00,
2013-12-20 09:00:00,20.1,16.3,29.91,West,264,0.0,0.0,85,0.00,,---,0.00,VWS V14.01,2013-12-20 16:00:00,
2013-12-20 09:02:00,19.5,15.7,29.92,West,264,0.0,0.0,85,0.00,,---,0.00,VWS V14.01,2013-12-20 16:02:00,
2013-12-20 09:07:00,19.6,15.8,29.92,West,264,0.0,0.0,85,0.00,,---,0.00,VWS V14.01,2013-12-20 16:07:00,
2013-12-20 09:12:00,19.6,15.8,29.92,West,264,0.0,0.0,85,0.00,,---,0.00,VWS V14.01,2013-12-20 16:12:00,
2013-12-20 09:17:00,19.7,15.9,29.92,West,264,0.0,0.0,85,0.00,,---,0.00,VWS V14.01,2013-12-20 16:17:00,
2013-12-20 09:22:00,19.7,15.9,29.92,West,264,0.0,0.0,85,0.00,,---,0.00,VWS V14.01,2013-12-20 16:22:00,
2013-12-20 09:27:00,19.6,15.8,29.92,West,264,0.0,0.0,85,0.00,,---,0.00,VWS V14.01,2013-12-20 16:27:00,
2013-12-20 09:30:00,20.4,16.4,29.90,NW,316,0.0,6.0,84,0.00,,---,0.00,VWS V14.01,2013-12-20 16:30:00,
2013-12-20 09:32:00,19.5,15.7,29.92,West,264,0.0,0.0,85,0.00,,---,0.00,VWS V14.01,2013-12-20 16:32:00,
2013-12-20 09:37:00,19.7,15.9,29.91,West,264,0.0,0.0,85,0.00,,---,0.00,VWS V14.01,2013-12-20 16:37:00,
2013-12-20 09:42:00,19.7,15.9,29.91,West,264,0.0,0.0,85,0.00,,---,0.00,VWS V14.01,2013-12-20 16:42:00,
2013-12-20 09:47:00,20.0,16.2,29.91,West,264,0.0,0.0,85,0.00,,---,0.00,VWS V14.01,2013-12-20 16:47:00,
2013-12-20 09:52:00,20.0,16.2,29.91,West,264,0.0,0.0,85,0.00,,---,0.00,VWS V14.01,2013-12-20 16:52:00,
2013-12-20 09:58:00,19.9,16.1,29.91,West,264,0.0,0.0,85,0.00,,---,0.00,VWS V14.01,2013-12-20 16:58:00,
2013-12-20 10:00:00,20.2,16.1,29.89,NW,317,0.0,0.0,84,0.00,,---,0.00,VWS V14.01,2013-12-20 17:00:00,
2013-12-20 10:03:00,20.0,16.2,29.91,West,264,0.0,0.0,85,0.00,,---,0.00,VWS V14.01,2013-12-20 17:03:00,
2013-12-20 10:08:00,20.0,16.2,29.90,West,264,0.0,0.0,85,0.00,,---,0.00,VWS V14.01,2013-12-20 17:08:00,
2013-12-20 10:13:00,20.1,16.0,29.90,West,264,0.0,0.0,84,0.00,,---,0.00,VWS V14.01,2013-12-20 17:13:00,
2013-12-20 10:18:00,20.2,16.4,29.90,West,264,0.0,0.0,85,0.00,,---,0.00,VWS V14.01,2013-12-20 17:18:00,
2013-12-20 10:23:00,20.2,18.2,29.90,NW,316,3.0,6.0,92,0.00,,---,0.00,VWS V14.01,2013-12-20 17:23:00,
2013-12-20 10:28:00,20.4,16.6,29.90,NW,315,0.0,6.0,85,0.00,,---,0.00,VWS V14.01,2013-12-20 17:28:00,
2013-12-20 10:30:00,20.8,16.7,29.89,WSW,254,0.0,4.0,84,0.00,,---,0.00,VWS V14.01,2013-12-20 17:30:00,
2013-12-20 10:33:00,20.4,16.4,29.90,NW,316,0.0,6.0,84,0.00,,---,0.00,VWS V14.01,2013-12-20 17:33:00,
2013-12-20 10:38:00,20.2,16.1,29.90,NW,316,0.0,0.0,84,0.00,,---,0.00,VWS V14.01,2013-12-20 17:38:00,
2013-12-20 10:43:00,20.2,16.1,29.90,NW,315,0.0,0.0,84,0.00,,---,0.00,VWS V14.01,2013-12-20 17:43:00,
2013-12-20 10:48:00,20.1,16.0,29.90,NW,316,0.0,0.0,84,0.00,,---,0.00,VWS V14.01,2013-12-20 17:48:00,
2013-12-20 10:53:00,20.2,16.1,29.90,NW,315,0.0,0.0,84,0.00,,---,0.00,VWS V14.01,2013-12-20 17:53:00,
2013-12-20 10:58:00,20.2,16.1,29.89,NW,315,0.0,0.0,84,0.00,,---,0.00,VWS V14.01,2013-12-20 17:58:00,
2013-12-20 11:00:00,21.4,17.3,29.87,ESE,111,0.0,4.0,84,0.00,,---,0.00,VWS V14.01,2013-12-20 18:00:00,
2013-12-20 11:03:00,20.1,16.0,29.89,NW,316,0.0,0.0,84,0.00,,---,0.00,VWS V14.01,2013-12-20 18:03:00,
2013-12-20 11:08:00,20.2,16.1,29.89,NW,317,0.0,0.0,84,0.00,,---,0.00,VWS V14.01,2013-12-20 18:08:00,
2013-12-20 11:13:00,20.3,16.2,29.89,NW,317,0.0,0.0,84,0.00,,---,0.00,VWS V14.01,2013-12-20 18:13:00,
2013-12-20 11:18:00,20.7,16.6,29.89,NW,317,0.0,0.0,84,0.00,,---,0.00,VWS V14.01,2013-12-20 18:18:00,
2013-12-20 11:23:00,20.5,16.4,29.89,West,265,0.0,4.0,84,0.00,,---,0.00,VWS V14.01,2013-12-20 18:23:00,
2013-12-20 11:28:00,20.6,16.5,29.89,West,260,0.0,4.0,84,0.00,,---,0.00,VWS V14.01,2013-12-20 18:28:00,
2013-12-20 11:30:00,22.0,17.9,29.86,NNW,338,0.0,0.0,84,0.00,,---,0.00,VWS V14.01,2013-12-20 18:30:00,
2013-12-20 11:34:00,20.7,16.6,29.89,West,260,0.0,4.0,84,0.00,,---,0.00,VWS V14.01,2013-12-20 18:34:00,
2013-12-20 11:39:00,20.8,16.7,29.89,WSW,239,0.0,0.0,84,0.00,,---,0.00,VWS V14.01,2013-12-20 18:39:00,
2013-12-20 11:44:00,20.7,16.6,29.89,ESE,111,0.0,4.0,84,0.00,,---,0.00,VWS V14.01,2013-12-20 18:44:00,
2013-12-20 11:49:00,20.9,16.8,29.88,ESE,110,0.0,4.0,84,0.00,,---,0.00,VWS V14.01,2013-12-20 18:49:00,
2013-12-20 11:54:00,21.0,16.9,29.88,ESE,111,0.0,4.0,84,0.00,,---,0.00,VWS V14.01,2013-12-20 18:54:00,
2013-12-20 11:59:00,21.2,17.1,29.87,ESE,110,0.0,4.0,84,0.00,,---,0.00,VWS V14.01,2013-12-20 18:59:00,
2013-12-20 12:00:00,21.8,17.4,29.85,NNW,339,0.0,0.0,83,0.00,,---,0.00,VWS V14.01,2013-12-20 19:00:00,
2013-12-20 12:04:00,21.4,17.3,29.87,ESE,111,0.0,4.0,84,0.00,,---,0.00,VWS V14.01,2013-12-20 19:04:00,
2013-12-20 12:09:00,21.5,17.4,29.87,ESE,111,0.0,0.0,84,0.00,,---,0.00,VWS V14.01,2013-12-20 19:09:00,
2013-12-20 12:14:00,21.5,17.4,29.87,NNW,338,0.0,0.0,84,0.00,,---,0.00,VWS V14.01,2013-12-20 19:14:00,
2013-12-20 12:19:00,21.5,17.4,29.86,NNW,339,0.0,0.0,84,0.00,,---,0.00,VWS V14.01,2013-12-20 19:19:00,
2013-12-20 12:24:00,21.6,17.5,29.86,NNW,339,0.0,0.0,84,0.00,,---,0.00,VWS V14.01,2013-12-20 19:24:00,
2013-12-20 12:29:00,21.8,17.7,29.86,NNW,338,0.0,0.0,84,0.00,,---,0.00,VWS V14.01,2013-12-20 19:29:00,
2013-12-20 12:30:00,22.0,17.4,29.84,NW,325,0.0,0.0,82,0.00,,---,0.00,VWS V14.01,2013-12-20 19:30:00,
2013-12-20 12:33:00,21.9,17.8,29.86,NNW,339,0.0,0.0,84,0.00,,---,0.00,VWS V14.01,2013-12-20 19:33:00,
2013-12-20 12:38:00,21.9,17.5,29.86,NNW,339,0.0,0.0,83,0.00,,---,0.00,VWS V14.01,2013-12-20 19:38:00,
2013-12-20 12:43:00,21.7,17.3,29.86,NNW,339,0.0,0.0,83,0.00,,---,0.00,VWS V14.01,2013-12-20 19:43:00,
2013-12-20 12:49:00,21.7,17.3,29.86,NNW,338,0.0,0.0,83,0.00,,---,0.00,VWS V14.01,2013-12-20 19:49:00,
2013-12-20 12:54:00,21.8,17.4,29.85,NNW,339,0.0,0.0,83,0.00,,---,0.00,VWS V14.01,2013-12-20 19:54:00,
2013-12-20 12:59:00,21.7,17.3,29.85,NNW,339,0.0,0.0,83,0.00,,---,0.00,VWS V14.01,2013-12-20 19:59:00,
2013-12-20 13:00:00,22.1,17.5,29.84,NW,326,0.0,0.0,82,0.00,,---,0.00,VWS V14.01,2013-12-20 20:00:00,
2013-12-20 13:04:00,21.8,17.4,29.85,NNW,338,0.0,0.0,83,0.00,,---,0.00,VWS V14.01,2013-12-20 20:04:00,
2013-12-20 13:09:00,21.8,17.4,29.85,NNW,338,0.0,0.0,83,0.00,,---,0.00,VWS V14.01,2013-12-20 20:09:00,
2013-12-20 13:14:00,21.8,17.4,29.85,NNW,339,0.0,0.0,83,0.00,,---,0.00,VWS V14.01,2013-12-20 20:14:00,
2013-12-20 13:19:00,21.9,17.3,29.85,NNW,339,0.0,0.0,82,0.00,,---,0.00,VWS V14.01,2013-12-20 20:19:00,
2013-12-20 13:24:00,21.9,17.5,29.85,NNW,338,0.0,0.0,83,0.00,,---,0.00,VWS V14.01,2013-12-20 20:24:00,
2013-12-20 13:29:00,21.9,17.5,29.85,NNW,336,0.0,0.0,83,0.00,,---,0.00,VWS V14.01,2013-12-20 20:29:00,
2013-12-20 13:30:00,22.1,17.5,29.84,NE,53,0.0,3.0,82,0.00,,---,0.00,VWS V14.01,2013-12-20 20:30:00,
2013-12-20 13:34:00,21.9,17.3,29.84,NW,325,0.0,0.0,82,0.00,,---,0.00,VWS V14.01,2013-12-20 20:34:00,
2013-12-20 13:39:00,22.0,17.4,29.84,NW,325,0.0,0.0,82,0.00,,---,0.00,VWS V14.01,2013-12-20 20:39:00,
2013-12-20 13:44:00,22.0,17.4,29.84,NW,326,0.0,0.0,82,0.00,,---,0.00,VWS V14.01,2013-12-20 20:44:00,
2013-12-20 13:49:00,22.1,17.7,29.84,NW,326,0.0,0.0,83,0.00,,---,0.00,VWS V14.01,2013-12-20 20:49:00,
2013-12-20 13:54:00,22.1,17.5,29.84,NW,326,0.0,0.0,82,0.00,,---,0.00,VWS V14.01,2013-12-20 20:54:00,
2013-12-20 14:00:00,22.0,17.4,29.84,NW,326,0.0,0.0,82,0.00,,---,0.00,VWS V14.01,2013-12-20 21:00:00,
2013-12-20 14:05:00,22.1,17.5,29.84,NW,326,0.0,0.0,82,0.00,,---,0.00,VWS V14.01,2013-12-20 21:05:00,
2013-12-20 14:10:00,22.3,17.6,29.84,NW,326,0.0,0.0,82,0.00,,---,0.00,VWS V14.01,2013-12-20 21:10:00,
2013-12-20 14:15:00,22.3,17.6,29.84,NW,326,0.0,0.0,82,0.00,,---,0.00,VWS V14.01,2013-12-20 21:15:00,
2013-12-20 14:20:00,22.3,17.6,29.84,ENE,61,0.0,0.0,82,0.00,,---,0.00,VWS V14.01,2013-12-20 21:20:00,
2013-12-20 14:25:00,22.2,17.5,29.85,ENE,61,0.0,0.0,82,0.00,,---,0.00,VWS V14.01,2013-12-20 21:25:00,
2013-12-20 14:30:00,22.2,17.5,29.84,NE,53,0.0,0.0,82,0.00,,---,0.00,VWS V14.01,2013-12-20 21:30:00,
2013-12-20 14:35:00,22.2,17.5,29.85,NE,54,0.0,0.0,82,0.00,,---,0.00,VWS V14.01,2013-12-20 21:35:00,
2013-12-20 14:40:00,22.2,17.5,29.85,NE,54,0.0,0.0,82,0.00,,---,0.00,VWS V14.01,2013-12-20 21:40:00,
2013-12-20 14:45:00,22.4,17.8,29.85,NE,53,0.0,0.0,82,0.00,,---,0.00,VWS V14.01,2013-12-20 21:45:00,
2013-12-20 14:50:00,22.5,17.9,29.85,NE,53,0.0,0.0,82,0.00,,---,0.00,VWS V14.01,2013-12-20 21:50:00,
2013-12-20 14:55:00,22.7,18.0,29.86,NE,53,0.0,0.0,82,0.00,,---,0.00,VWS V14.01,2013-12-20 21:55:00,
2013-12-20 15:00:00,22.8,18.1,29.86,NE,53,0.0,0.0,82,0.00,,---,0.00,VWS V14.01,2013-12-20 22:00:00,
2013-12-20 15:05:00,22.9,18.2,29.86,NE,53,0.0,0.0,82,0.00,,---,0.00,VWS V14.01,2013-12-20 22:05:00,
2013-12-20 15:10:00,23.0,18.3,29.86,NE,54,0.0,0.0,82,0.00,,---,0.00,VWS V14.01,2013-12-20 22:10:00,
2013-12-20 15:16:00,23.1,18.1,29.86,NE,54,0.0,0.0,81,0.00,,---,0.00,VWS V14.01,2013-12-20 22:16:00,
2013-12-20 15:21:00,23.1,18.1,29.87,NE,53,0.0,0.0,81,0.00,,---,0.00,VWS V14.01,2013-12-20 22:21:00,
2013-12-20 15:26:00,23.1,18.1,29.87,NE,54,0.0,0.0,81,0.00,,---,0.00,VWS V14.01,2013-12-20 22:26:00,
2013-12-20 15:30:00,22.8,19.2,29.86,WSW,257,0.0,7.0,86,0.00,,---,0.00,VWS V14.01,2013-12-20 22:30:00,
2013-12-20 15:31:00,23.3,18.3,29.87,NE,53,0.0,0.0,81,0.00,,---,0.00,VWS V14.01,2013-12-20 22:31:00,
2013-12-20 15:36:00,23.3,18.3,29.87,NE,53,0.0,0.0,81,0.00,,---,0.00,VWS V14.01,2013-12-20 22:36:00,
2013-12-20 15:41:00,23.1,18.1,29.87,SE,132,0.0,0.0,81,0.00,,---,0.00,VWS V14.01,2013-12-20 22:41:00,
2013-12-20 15:46:00,23.1,18.1,29.87,SE,132,0.0,0.0,81,0.00,,---,0.00,VWS V14.01,2013-12-20 22:46:00,
2013-12-20 15:51:00,23.3,18.3,29.86,SE,132,0.0,3.0,81,0.00,,---,0.00,VWS V14.01,2013-12-20 22:51:00,
2013-12-20 15:56:00,23.3,18.1,29.87,SE,132,0.0,3.0,80,0.00,,---,0.00,VWS V14.01,2013-12-20 22:56:00,
2013-12-20 16:00:00,22.0,18.7,29.87,SSW,211,0.0,3.0,87,0.00,,---,0.00,VWS V14.01,2013-12-20 23:00:00,
2013-12-20 16:01:00,23.2,18.2,29.87,SE,132,1.0,5.0,81,0.00,,---,0.00,VWS V14.01,2013-12-20 23:01:00,
2013-12-20 16:06:00,23.1,18.1,29.87,SE,132,0.0,0.0,81,0.00,,---,0.00,VWS V14.01,2013-12-20 23:06:00,
2013-12-20 16:11:00,23.2,18.2,29.88,SE,132,0.0,0.0,81,0.00,,---,0.00,VWS V14.01,2013-12-20 23:11:00,
2013-12-20 16:17:00,23.4,18.4,29.88,SSW,192,4.0,6.0,81,0.00,,---,0.00,VWS V14.01,2013-12-20 23:17:00,
2013-12-20 16:22:00,23.6,18.6,29.87,SSW,192,0.0,6.0,81,0.00,,---,0.00,VWS V14.01,2013-12-20 23:22:00,
2013-12-20 16:27:00,23.6,18.4,29.87,South,178,3.0,7.0,80,0.00,,---,0.00,VWS V14.01,2013-12-20 23:27:00,
2013-12-20 16:30:00,21.6,18.9,29.88,West,269,0.0,1.0,89,0.00,,---,0.00,VWS V14.01,2013-12-20 23:30:00,
2013-12-20 16:32:00,23.7,18.5,29.87,South,182,3.0,7.0,80,0.00,,---,0.00,VWS V14.01,2013-12-20 23:32:00,
2013-12-20 16:37:00,22.8,19.2,29.86,SW,217,1.0,3.0,86,0.00,,---,0.00,VWS V14.01,2013-12-20 23:37:00,
2013-12-20 16:42:00,22.7,19.1,29.87,SSW,211,0.0,3.0,86,0.00,,---,0.00,VWS V14.01,2013-12-20 23:42:00,
2013-12-20 16:47:00,22.7,19.1,29.87,West,261,0.0,3.0,86,0.00,,---,0.00,VWS V14.01,2013-12-20 23:47:00,
2013-12-20 16:52:00,22.5,19.0,29.87,West,261,0.0,3.0,86,0.00,,---,0.00,VWS V14.01,2013-12-20 23:52:00,
2013-12-20 16:57:00,22.3,18.8,29.87,South,185,0.0,3.0,86,0.00,,---,0.00,VWS V14.01,2013-12-20 23:57:00,
2013-12-20 17:00:00,21.9,18.6,29.88,East,100,0.0,1.0,87,0.00,,---,0.00,VWS V14.01,2013-12-21 00:00:00,
2013-12-20 17:02:00,22.1,18.8,29.87,SSW,211,0.0,3.0,87,0.00,,---,0.00,VWS V14.01,2013-12-21 00:02:00,
2013-12-20 17:07:00,21.9,18.6,29.87,SSW,211,0.0,0.0,87,0.00,,---,0.00,VWS V14.01,2013-12-21 00:07:00,
2013-12-20 17:12:00,21.8,18.8,29.87,SSW,211,0.0,0.0,88,0.00,,---,0.00,VWS V14.01,2013-12-21 00:12:00,
2013-12-20 17:17:00,21.7,18.7,29.87,SSW,210,0.0,0.0,88,0.00,,---,0.00,VWS V14.01,2013-12-21 00:17:00,
2013-12-20 17:22:00,21.4,18.4,29.87,SSW,210,0.0,0.0,88,0.00,,---,0.00,VWS V14.01,2013-12-21 00:22:00,
2013-12-20 17:28:00,21.4,18.7,29.88,SW,225,0.0,1.0,89,0.00,,---,0.00,VWS V14.01,2013-12-21 00:28:00,
2013-12-20 17:30:00,22.1,18.8,29.89,SW,227,0.0,1.0,87,0.00,,---,0.00,VWS V14.01,2013-12-21 00:30:00,
2013-12-20 17:33:00,21.6,18.9,29.88,West,269,0.0,1.0,89,0.00,,---,0.00,VWS V14.01,2013-12-21 00:33:00,
2013-12-20 17:38:00,21.7,19.0,29.88,West,268,1.0,1.0,89,0.00,,---,0.00,VWS V14.01,2013-12-21 00:38:00,
2013-12-20 17:43:00,21.7,19.0,29.88,SE,140,0.0,1.0,89,0.00,,---,0.00,VWS V14.01,2013-12-21 00:43:00,
2013-12-20 17:48:00,22.0,19.3,29.88,SE,140,0.0,1.0,89,0.00,,---,0.00,VWS V14.01,2013-12-21 00:48:00,
2013-12-20 17:53:00,22.2,19.2,29.88,East,99,0.0,1.0,88,0.00,,---,0.00,VWS V14.01,2013-12-21 00:53:00,
2013-12-20 17:58:00,22.1,18.8,29.89,East,99,0.0,1.0,87,0.00,,---,0.00,VWS V14.01,2013-12-21 00:58:00,
2013-12-20 18:00:00,21.9,18.6,29.89,ENE,63,2.0,3.0,87,0.00,,---,0.00,VWS V14.01,2013-12-21 01:00:00,
2013-12-20 18:03:00,22.0,18.7,29.89,East,100,0.0,1.0,87,0.00,,---,0.00,VWS V14.01,2013-12-21 01:03:00,
2013-12-20 18:08:00,21.8,18.8,29.88,SSW,205,0.0,1.0,88,0.00,,---,0.00,VWS V14.01,2013-12-21 01:08:00,
2013-12-20 18:13:00,21.9,18.9,29.89,SE,139,0.0,1.0,88,0.00,,---,0.00,VWS V14.01,2013-12-21 01:13:00,
2013-12-20 18:18:00,22.1,19.1,29.89,ESE,109,0.0,1.0,88,0.00,,---,0.00,VWS V14.01,2013-12-21 01:18:00,
2013-12-20 18:23:00,22.1,19.1,29.89,ESE,110,0.0,1.0,88,0.00,,---,0.00,VWS V14.01,2013-12-21 01:23:00,
2013-12-20 18:28:00,22.1,19.1,29.89,NE,38,0.0,1.0,88,0.00,,---,0.00,VWS V14.01,2013-12-21 01:28:00,
2013-12-20 18:30:00,20.9,17.9,29.89,ENE,57,0.0,4.0,88,0.00,,---,0.00,VWS V14.01,2013-12-21 01:30:00,
2013-12-20 18:34:00,22.1,18.8,29.89,SW,227,0.0,1.0,87,0.00,,---,0.00,VWS V14.01,2013-12-21 01:34:00,
2013-12-20 18:39:00,21.8,18.5,29.88,SW,227,0.0,1.0,87,0.00,,---,0.00,VWS V14.01,2013-12-21 01:39:00,
2013-12-20 18:44:00,21.9,18.9,29.88,NNE,30,0.0,1.0,88,0.00,,---,0.00,VWS V14.01,2013-12-21 01:44:00,
2013-12-20 18:49:00,21.8,18.8,29.88,WSW,244,0.0,1.0,88,0.00,,---,0.00,VWS V14.01,2013-12-21 01:49:00,
2013-12-20 18:54:00,21.8,18.8,29.87,WSW,250,1.0,2.0,88,0.00,,---,0.00,VWS V14.01,2013-12-21 01:54:00,
2013-12-20 18:59:00,22.0,19.0,29.87,WSW,252,0.0,2.0,88,0.00,,---,0.00,VWS V14.01,2013-12-21 01:59:00,
2013-12-20 19:00:00,19.6,16.9,29.89,NE,34,0.0,1.0,89,0.00,,---,0.00,VWS V14.01,2013-12-21 02:00:00,
2013-12-20 19:04:00,21.9,18.6,29.89,ENE,64,2.0,2.0,87,0.00,,---,0.00,VWS V14.01,2013-12-21 02:04:00,
2013-12-20 19:09:00,21.7,18.4,29.89,ENE,63,0.0,2.0,87,0.00,,---,0.00,VWS V14.01,2013-12-21 02:09:00,
2013-12-20 19:14:00,21.4,17.9,29.89,WSW,246,2.0,2.0,86,0.00,,---,0.00,VWS V14.01,2013-12-21 02:14:00,
2013-12-20 19:19:00,21.2,17.9,29.88,SSW,198,0.0,2.0,87,0.00,,---,0.00,VWS V14.01,2013-12-21 02:19:00,
2013-12-20 19:24:00,21.2,18.2,29.89,ENE,71,1.0,2.0,88,0.00,,---,0.00,VWS V14.01,2013-12-21 02:24:00,
2013-12-20 19:29:00,21.0,17.8,29.89,ENE,64,1.0,4.0,87,0.00,,---,0.00,VWS V14.01,2013-12-21 02:29:00,
2013-12-20 19:30:00,19.8,17.4,29.88,SSW,199,0.0,1.0,90,0.00,,---,0.00,VWS V14.01,2013-12-21 02:30:00,
2013-12-20 19:34:00,20.9,17.9,29.89,ENE,57,0.0,4.0,88,0.00,,---,0.00,VWS V14.01,2013-12-21 02:34:00,
2013-12-20 19:40:00,20.8,17.8,29.89,ENE,57,0.0,0.0,88,0.00,,---,0.00,VWS V14.01,2013-12-21 02:40:00,
2013-12-20 19:45:00,20.5,17.5,29.89,ENE,57,0.0,0.0,88,0.00,,---,0.00,VWS V14.01,2013-12-21 02:45:00,
2013-12-20 19:50:00,20.4,17.7,29.89,ENE,57,0.0,0.0,89,0.00,,---,0.00,VWS V14.01,2013-12-21 02:50:00,
2013-12-20 19:55:00,20.2,17.5,29.88,NNE,33,0.0,1.0,89,0.00,,---,0.00,VWS V14.01,2013-12-21 02:55:00,
2013-12-20 20:00:00,19.8,17.1,29.89,NE,34,0.0,1.0,89,0.00,,---,0.00,VWS V14.01,2013-12-21 03:00:00,
2013-12-20 20:05:00,19.6,16.9,29.89,NE,34,0.0,0.0,89,0.00,,---,0.00,VWS V14.01,2013-12-21 03:05:00,
2013-12-20 20:10:00,19.7,17.2,29.89,SW,235,0.0,1.0,90,0.00,,---,0.00,VWS V14.01,2013-12-21 03:10:00,
2013-12-20 20:15:00,19.7,17.2,29.88,SSW,199,0.0,1.0,90,0.00,,---,0.00,VWS V14.01,2013-12-21 03:15:00,
2013-12-20 20:20:00,19.8,17.4,29.89,SSW,199,0.0,1.0,90,0.00,,---,0.00,VWS V14.01,2013-12-21 03:20:00,
2013-12-20 20:25:00,19.9,17.5,29.89,SSW,199,0.0,1.0,90,0.00,,---,0.00,VWS V14.01,2013-12-21 03:25:00,
2013-12-20 20:30:00,19.8,17.4,29.89,SSW,199,0.0,1.0,90,0.00,,---,0.00,VWS V14.01,2013-12-21 03:30:00,
2013-12-20 20:35:00,19.8,17.4,29.88,SSW,199,0.0,0.0,90,0.00,,---,0.00,VWS V14.01,2013-12-21 03:35:00,
2013-12-20 20:41:00,19.9,17.5,29.89,WNW,287,0.0,1.0,90,0.00,,---,0.00,VWS V14.01,2013-12-21 03:41:00,
2013-12-20 20:46:00,19.8,17.1,29.89,WNW,287,0.0,1.0,89,0.00,,---,0.00,VWS V14.01,2013-12-21 03:46:00,
2013-12-20 20:51:00,19.6,16.9,29.89,WNW,287,0.0,1.0,89,0.00,,---,0.00,VWS V14.01,2013-12-21 03:51:00,
2013-12-20 20:56:00,19.4,16.7,29.89,WNW,287,0.0,1.0,89,0.00,,---,0.00,VWS V14.01,2013-12-21 03:56:00,
2013-12-20 21:00:00,18.2,16.0,29.89,West,261,0.0,1.0,91,0.00,,---,0.00,VWS V14.01,2013-12-21 04:00:00,
2013-12-20 21:01:00,19.6,17.4,29.89,WNW,287,0.0,1.0,91,0.00,,---,0.00,VWS V14.01,2013-12-21 04:01:00,
2013-12-20 21:06:00,22.8,17.9,29.89,SSE,157,0.0,0.0,81,0.00,,---,0.00,VWS V14.01,2013-12-21 04:06:00,
2013-12-20 21:11:00,22.8,17.9,29.89,SW,229,0.0,0.0,81,0.00,,---,0.00,VWS V14.01,2013-12-21 04:11:00,
2013-12-20 21:16:00,22.4,17.2,29.89,WSW,249,0.0,3.0,80,0.00,,---,0.00,VWS V14.01,2013-12-21 04:16:00,
2013-12-20 21:21:00,22.0,17.1,29.89,WSW,249,0.0,3.0,81,0.00,,---,0.00,VWS V14.01,2013-12-21 04:21:00,
2013-12-20 21:26:00,21.6,16.7,29.89,WSW,249,0.0,3.0,81,0.00,,---,0.00,VWS V14.01,2013-12-21 04:26:00,
2013-12-20 21:30:00,17.7,15.8,29.88,WSW,257,0.0,1.0,92,0.00,,---,0.00,VWS V14.01,2013-12-21 04:30:00,
2013-12-20 21:31:00,21.6,16.7,29.89,WSW,249,0.0,3.0,81,0.00,,---,0.00,VWS V14.01,2013-12-21 04:31:00,
2013-12-20 21:36:00,21.3,16.4,29.88,WSW,248,0.0,0.0,81,0.00,,---,0.00,VWS V14.01,2013-12-21 04:36:00,
2013-12-20 21:42:00,19.1,16.1,29.89,SE,133,0.0,1.0,88,0.00,,---,0.00,VWS V14.01,2013-12-21 04:42:00,
2013-12-20 21:47:00,18.5,15.6,29.88,SE,126,0.0,1.0,88,0.00,,---,0.00,VWS V14.01,2013-12-21 04:47:00,
2013-12-20 21:52:00,18.2,15.8,29.89,West,263,0.0,1.0,90,0.00,,---,0.00,VWS V14.01,2013-12-21 04:52:00,
2013-12-20 21:57:00,18.1,15.7,29.89,West,263,0.0,1.0,90,0.00,,---,0.00,VWS V14.01,2013-12-21 04:57:00,
2013-12-20 22:00:00,17.4,15.2,29.87,ENE,76,0.0,1.0,91,0.00,,---,0.00,VWS V14.01,2013-12-21 05:00:00,
2013-12-20 22:01:00,18.1,15.7,29.89,West,263,0.0,1.0,90,0.00,,---,0.00,VWS V14.01,2013-12-21 05:01:00,
2013-12-20 22:02:00,18.1,15.7,29.89,West,263,0.0,1.0,90,0.00,,---,0.00,VWS V14.01,2013-12-21 05:02:00,
2013-12-20 22:07:00,18.2,16.0,29.89,WSW,238,0.0,1.0,91,0.00,,---,0.00,VWS V14.01,2013-12-21 05:07:00,
2013-12-20 22:12:00,18.1,15.9,29.89,NE,46,0.0,1.0,91,0.00,,---,0.00,VWS V14.01,2013-12-21 05:12:00,
2013-12-20 22:17:00,18.0,15.8,29.89,NNW,333,0.0,1.0,91,0.00,,---,0.00,VWS V14.01,2013-12-21 05:17:00,
2013-12-20 22:22:00,17.9,15.7,29.89,NNW,333,0.0,1.0,91,0.00,,---,0.00,VWS V14.01,2013-12-21 05:22:00,
2013-12-20 22:27:00,17.7,15.5,29.88,NNW,333,0.0,1.0,91,0.00,,---,0.00,VWS V14.01,2013-12-21 05:27:00,
2013-12-20 22:32:00,17.7,15.8,29.88,West,260,1.0,1.0,92,0.00,,---,0.00,VWS V14.01,2013-12-21 05:32:00,
2013-12-20 22:37:00,17.7,15.8,29.88,WSW,256,0.0,1.0,92,0.00,,---,0.00,VWS V14.01,2013-12-21 05:37:00,
2013-12-20 22:42:00,17.7,15.8,29.88,WSW,256,0.0,1.0,92,0.00,,---,0.00,VWS V14.01,2013-12-21 05:42:00,
2013-12-20 22:47:00,17.5,15.6,29.87,East,94,0.0,1.0,92,0.00,,---,0.00,VWS V14.01,2013-12-21 05:47:00,
2013-12-20 22:53:00,17.4,15.5,29.87,ENE,76,0.0,1.0,92,0.00,,---,0.00,VWS V14.01,2013-12-21 05:53:00,
2013-12-20 22:58:00,17.5,15.6,29.88,WSW,256,0.0,1.0,92,0.00,,---,0.00,VWS V14.01,2013-12-21 05:58:00,
2013-12-20 23:00:00,15.9,14.0,29.84,West,263,0.0,1.0,92,0.00,,---,0.00,VWS V14.01,2013-12-21 06:00:00,
2013-12-20 23:03:00,17.4,15.5,29.86,ENE,76,0.0,1.0,92,0.00,,---,0.00,VWS V14.01,2013-12-21 06:03:00,
2013-12-20 23:08:00,17.2,15.0,29.87,ENE,76,1.0,1.0,91,0.00,,---,0.00,VWS V14.01,2013-12-21 06:08:00,
2013-12-20 23:13:00,17.1,14.9,29.86,East,96,0.0,2.0,91,0.00,,---,0.00,VWS V14.01,2013-12-21 06:13:00,
2013-12-20 23:18:00,16.7,14.3,29.85,South,175,0.0,2.0,90,0.00,,---,0.00,VWS V14.01,2013-12-21 06:18:00,
2013-12-20 23:23:00,16.3,14.1,29.85,SSW,198,0.0,2.0,91,0.00,,---,0.00,VWS V14.01,2013-12-21 06:23:00,
2013-12-20 23:28:00,16.2,14.0,29.86,SSW,198,0.0,2.0,91,0.00,,---,0.00,VWS V14.01,2013-12-21 06:28:00,
2013-12-20 23:30:00,15.1,13.2,29.83,West,263,0.0,1.0,92,0.00,,---,0.00,VWS V14.01,2013-12-21 06:30:00,
2013-12-20 23:33:00,16.2,14.0,29.86,SSW,198,0.0,2.0,91,0.00,,---,0.00,VWS V14.01,2013-12-21 06:33:00,
2013-12-20 23:38:00,16.0,13.8,29.86,SSW,198,0.0,0.0,91,0.00,,---,0.00,VWS V14.01,2013-12-21 06:38:00,
2013-12-20 23:43:00,15.7,13.5,29.86,SSW,198,0.0,0.0,91,0.00,,---,0.00,VWS V14.01,2013-12-21 06:43:00,
2013-12-20 23:48:00,15.7,13.8,29.86,ESE,109,0.0,1.0,92,0.00,,---,0.00,VWS V14.01,2013-12-21 06:48:00,
2013-12-20 23:53:00,15.9,14.2,29.85,West,263,0.0,1.0,93,0.00,,---,0.00,VWS V14.01,2013-12-21 06:53:00,
2013-12-20 23:58:00,15.9,14.0,29.85,West,263,0.0,1.0,92,0.00,,---,0.00,VWS V14.01,2013-12-21 06:58:00,